createdAt,value
2022-09-16T00:00:54.729Z,1.43
2022-09-16T00:03:21.957Z,1.57
2022-09-16T00:05:52.416Z,1.90
2022-09-16T00:08:21.430Z,1.67
2022-09-16T00:10:48.867Z,1.60
2022-09-16T00:13:16.514Z,1.50
2022-09-16T00:15:51.152Z,1.50
2022-09-16T00:18:20.431Z,1.80
2022-09-16T00:20:52.762Z,1.80
2022-09-16T00:23:20.391Z,1.60
2022-09-16T00:25:55.223Z,1.60
2022-09-16T00:28:23.612Z,2.00
2022-09-16T00:30:51.226Z,1.93
2022-09-16T00:33:19.980Z,2.00
2022-09-16T00:35:47.836Z,1.87
2022-09-16T00:38:15.124Z,1.87
2022-09-16T00:40:47.868Z,2.43
2022-09-16T00:43:18.550Z,2.10
2022-09-16T00:45:51.368Z,2.00
2022-09-16T00:48:23.285Z,2.17
2022-09-16T00:51:10.466Z,2.00
2022-09-16T00:54:09.980Z,1.57
2022-09-16T00:56:40.122Z,2.13
2022-09-16T00:59:22.508Z,2.10
2022-09-16T01:01:50.194Z,1.80
2022-09-16T01:04:30.075Z,1.97
2022-09-16T01:06:57.574Z,2.13
2022-09-16T01:09:25.916Z,1.70
2022-09-16T01:11:52.914Z,1.67
2022-09-16T01:14:40.201Z,1.60
2022-09-16T01:17:18.511Z,2.03
2022-09-16T01:20:03.931Z,1.90
2022-09-16T01:23:07.436Z,1.97
2022-09-16T01:26:28.230Z,1.90
2022-09-16T01:29:31.928Z,2.20
2022-09-16T01:32:18.434Z,2.77
2022-09-16T01:35:11.375Z,2.87
2022-09-16T01:37:56.871Z,3.20
2022-09-16T01:40:48.679Z,4.13
2022-09-16T01:43:34.773Z,4.10
2022-09-16T01:46:28.107Z,4.63
2022-09-16T01:49:35.979Z,4.63
2022-09-16T01:53:03.626Z,3.40
2022-09-16T01:55:43.013Z,3.00
2022-09-16T01:58:17.876Z,3.23
2022-09-16T02:00:46.536Z,3.33
2022-09-16T02:03:21.567Z,2.50
2022-09-16T02:05:54.585Z,2.50
2022-09-16T02:08:34.282Z,2.10
2022-09-16T02:11:05.827Z,2.50
2022-09-16T02:14:10.639Z,2.30
2022-09-16T02:16:47.404Z,2.07
2022-09-16T02:19:30.706Z,1.80
2022-09-16T02:22:00.821Z,1.80
2022-09-16T02:24:31.013Z,2.93
2022-09-16T02:27:01.464Z,2.07
2022-09-16T02:29:37.766Z,2.07
2022-09-16T02:32:08.412Z,1.97
2022-09-16T02:34:40.408Z,2.00
2022-09-16T02:37:16.108Z,1.80
2022-09-16T02:39:50.792Z,1.73
2022-09-16T02:42:17.956Z,2.13
2022-09-16T02:44:47.094Z,2.20
2022-09-16T02:47:51.954Z,2.03
2022-09-16T02:50:47.963Z,2.20
2022-09-16T02:53:26.356Z,1.80
2022-09-16T02:56:18.312Z,2.10
2022-09-16T02:58:45.260Z,1.85
2022-09-16T03:01:13.797Z,2.23
2022-09-16T03:03:41.259Z,1.93
2022-09-16T03:06:23.041Z,2.30
2022-09-16T03:08:51.281Z,2.03
2022-09-16T03:12:15.101Z,1.80
2022-09-16T03:15:05.800Z,2.10
2022-09-16T03:18:01.814Z,2.30
2022-09-16T03:21:03.001Z,1.87
2022-09-16T03:23:44.824Z,2.30
2022-09-16T03:26:53.922Z,2.50
2022-09-16T03:29:45.664Z,2.43
2022-09-16T03:32:17.622Z,3.10
2022-09-16T03:35:01.822Z,2.70
2022-09-16T03:37:34.475Z,2.50
2022-09-16T03:40:14.995Z,3.20
2022-09-16T03:42:44.344Z,2.80
2022-09-16T03:45:22.339Z,2.70
2022-09-16T03:47:51.227Z,2.30
2022-09-16T03:50:20.564Z,2.13
2022-09-16T03:52:47.573Z,2.20
2022-09-16T03:55:16.816Z,2.00
2022-09-16T03:57:43.897Z,2.03
2022-09-16T04:00:11.593Z,2.17
2022-09-16T04:02:38.804Z,1.90
2022-09-16T04:05:06.503Z,1.83
2022-09-16T04:07:33.707Z,1.97
2022-09-16T04:10:01.899Z,2.50
2022-09-16T04:12:29.743Z,1.70
2022-09-16T04:14:56.774Z,1.80
2022-09-16T04:17:24.229Z,1.73
2022-09-16T04:19:52.886Z,1.70
2022-09-16T04:22:20.016Z,1.73
2022-09-16T04:24:46.916Z,1.87
2022-09-16T04:27:13.850Z,1.63
2022-09-16T04:29:40.750Z,1.40
2022-09-16T04:32:07.624Z,1.50
2022-09-16T04:34:34.635Z,1.50
2022-09-16T04:37:01.753Z,1.67
2022-09-16T04:39:28.768Z,1.70
2022-09-16T04:41:55.726Z,1.50
2022-09-16T04:44:22.605Z,1.50
2022-09-16T04:46:49.502Z,1.60
2022-09-16T04:49:16.436Z,1.77
2022-09-16T04:51:43.341Z,1.63
2022-09-16T04:54:11.755Z,1.50
2022-09-16T04:56:38.938Z,1.83
2022-09-16T04:59:06.340Z,1.60
2022-09-16T05:01:37.944Z,1.40
2022-09-16T05:04:07.454Z,1.20
2022-09-16T05:06:37.544Z,1.50
2022-09-16T05:09:05.297Z,1.47
2022-09-16T05:11:36.006Z,1.40
2022-09-16T05:14:06.202Z,1.47
2022-09-16T05:16:33.406Z,1.07
2022-09-16T05:19:04.838Z,1.30
2022-09-16T05:21:36.616Z,1.20
2022-09-16T05:24:10.046Z,1.70
2022-09-16T05:26:39.806Z,1.47
2022-09-16T05:29:11.079Z,1.10
2022-09-16T05:31:41.427Z,1.23
2022-09-16T05:34:20.465Z,1.17
2022-09-16T05:36:49.452Z,1.63
2022-09-16T05:39:25.895Z,1.80
2022-09-16T05:41:58.453Z,1.50
2022-09-16T05:44:26.974Z,1.63
2022-09-16T05:46:54.810Z,1.10
2022-09-16T05:49:21.813Z,1.30
2022-09-16T05:51:50.362Z,0.93
2022-09-16T05:54:18.758Z,1.03
2022-09-16T05:56:46.907Z,1.00
2022-09-16T05:59:16.095Z,0.90
2022-09-16T06:01:43.645Z,0.90
2022-09-16T06:04:13.627Z,0.60
2022-09-16T06:06:44.196Z,1.00
2022-09-16T06:09:23.231Z,1.37
2022-09-16T06:11:55.413Z,0.90
2022-09-16T06:14:23.836Z,1.30
2022-09-16T06:16:50.724Z,1.10
2022-09-16T06:19:18.841Z,0.80
2022-09-16T06:21:46.677Z,0.93
2022-09-16T06:24:16.333Z,0.80
2022-09-16T06:26:45.168Z,0.90
2022-09-16T06:29:13.521Z,0.67
2022-09-16T06:31:40.949Z,1.17
2022-09-16T06:34:14.043Z,0.90
2022-09-16T06:36:44.760Z,0.90
2022-09-16T06:39:14.836Z,0.60
2022-09-16T06:41:42.222Z,0.77
2022-09-16T06:44:09.524Z,1.13
2022-09-16T06:46:37.359Z,1.07
2022-09-16T06:49:06.021Z,1.10
2022-09-16T06:51:34.382Z,0.93
2022-09-16T06:54:06.221Z,0.67
2022-09-16T06:56:36.067Z,1.27
2022-09-16T06:59:03.761Z,0.73
2022-09-16T07:01:31.846Z,1.23
2022-09-16T07:04:05.721Z,1.20
2022-09-16T07:06:58.326Z,0.90
2022-09-16T07:09:20.603Z,1.07
2022-09-16T07:11:47.519Z,1.17
2022-09-16T07:14:14.408Z,1.43
2022-09-16T07:16:41.378Z,1.40
2022-09-16T07:19:08.341Z,1.90
2022-09-16T07:21:35.709Z,1.60
2022-09-16T07:24:03.674Z,1.50
2022-09-16T07:26:34.865Z,1.00
2022-09-16T07:29:04.690Z,1.53
2022-09-16T07:31:36.099Z,1.83
2022-09-16T07:34:05.929Z,1.73
2022-09-16T07:36:39.501Z,1.80
2022-09-16T07:39:08.133Z,2.23
2022-09-16T07:41:41.857Z,1.77
2022-09-16T07:44:13.957Z,1.97
2022-09-16T07:46:40.849Z,2.30
2022-09-16T07:49:10.598Z,2.30
2022-09-16T07:51:37.680Z,2.70
2022-09-16T07:54:13.274Z,2.93
2022-09-16T07:56:42.188Z,2.50
2022-09-16T07:59:18.480Z,2.70
2022-09-16T08:01:47.844Z,2.43
2022-09-16T08:04:14.910Z,2.13
2022-09-16T08:06:41.826Z,2.30
2022-09-16T08:09:21.255Z,2.43
2022-09-16T08:11:55.763Z,2.20
2022-09-16T08:14:22.701Z,1.87
2022-09-16T08:16:51.529Z,1.50
2022-09-16T08:19:19.879Z,1.80
2022-09-16T08:21:47.076Z,1.92
2022-09-16T08:24:13.987Z,1.60
2022-09-16T08:26:41.058Z,1.73
2022-09-16T08:29:09.838Z,1.50
2022-09-16T08:31:37.762Z,1.30
2022-09-16T08:34:05.046Z,0.95
2022-09-16T08:36:33.536Z,0.80
2022-09-16T08:39:01.199Z,0.70
2022-09-16T08:42:06.886Z,0.70
2022-09-16T08:45:04.950Z,0.77
2022-09-16T08:48:06.399Z,0.70
2022-09-16T08:50:39.265Z,0.77
2022-09-16T08:53:16.468Z,0.53
2022-09-16T08:55:48.459Z,0.60
2022-09-16T08:58:26.644Z,0.50
2022-09-16T09:01:25.330Z,0.70
2022-09-16T09:03:52.575Z,0.60
2022-09-16T09:06:58.701Z,0.90
2022-09-16T09:09:48.329Z,0.90
2022-09-16T09:12:35.459Z,0.77
2022-09-16T09:15:39.903Z,0.80
2022-09-16T09:18:39.904Z,0.67
2022-09-16T09:21:46.985Z,0.93
2022-09-16T09:24:44.310Z,1.00
2022-09-16T09:27:48.756Z,0.90
2022-09-16T09:30:27.665Z,0.87
2022-09-16T09:33:44.368Z,1.00
2022-09-16T09:36:52.614Z,0.80
2022-09-16T09:39:57.977Z,1.10
2022-09-16T09:42:31.542Z,0.70
2022-09-16T09:45:16.630Z,0.90
2022-09-16T09:47:51.309Z,1.00
2022-09-16T09:50:34.338Z,0.70
2022-09-16T09:53:15.052Z,0.83
2022-09-16T09:55:42.986Z,1.10
2022-09-16T09:58:31.559Z,0.80
2022-09-16T10:00:58.616Z,1.33
2022-09-16T10:03:27.700Z,0.60
2022-09-16T10:05:54.829Z,0.83
2022-09-16T10:08:28.748Z,0.80
2022-09-16T10:10:59.609Z,0.80
2022-09-16T10:13:32.418Z,0.90
2022-09-16T10:16:15.030Z,0.80
2022-09-16T10:18:42.527Z,0.80
2022-09-16T10:21:17.696Z,0.93
2022-09-16T10:23:57.230Z,0.80
2022-09-16T10:26:27.960Z,0.77
2022-09-16T10:29:12.837Z,1.00
2022-09-16T10:31:42.775Z,0.97
2022-09-16T10:34:32.811Z,0.80
2022-09-16T10:37:20.408Z,0.93
2022-09-16T10:39:57.165Z,1.00
2022-09-16T10:42:28.151Z,0.90
2022-09-16T10:45:27.483Z,1.10
2022-09-16T10:48:00.954Z,0.97
2022-09-16T10:50:30.474Z,1.00
2022-09-16T10:52:57.444Z,1.17
2022-09-16T10:55:36.516Z,1.08
2022-09-16T10:58:10.024Z,1.40
2022-09-16T11:00:49.171Z,1.30
2022-09-16T11:03:56.973Z,1.00
2022-09-16T11:07:04.136Z,1.00
2022-09-16T11:10:01.915Z,0.93
2022-09-16T11:12:40.564Z,0.60
2022-09-16T11:15:49.140Z,0.77
2022-09-16T11:18:38.069Z,0.70
2022-09-16T11:21:26.209Z,1.47
2022-09-16T11:24:18.138Z,1.10
2022-09-16T11:27:13.955Z,1.00
2022-09-16T11:30:04.036Z,0.97
2022-09-16T11:33:26.831Z,0.80
2022-09-16T11:36:09.662Z,0.87
2022-09-16T12:09:52.389Z,0.93
2022-09-16T12:12:25.230Z,1.08
2022-09-16T12:15:20.089Z,1.58
2022-09-16T12:18:02.825Z,1.05
2022-09-16T12:20:42.587Z,0.88
2022-09-16T12:23:29.086Z,1.08
2022-09-16T12:26:24.567Z,0.90
2022-09-16T12:29:13.262Z,1.10
2022-09-16T12:31:48.155Z,1.15
2022-09-16T12:34:25.706Z,1.20
2022-09-16T12:37:15.155Z,0.90
2022-09-16T12:39:43.076Z,0.90
2022-09-16T12:42:50.929Z,0.95
2022-09-16T12:46:13.311Z,1.25
2022-09-16T12:49:08.302Z,0.73
2022-09-16T12:51:40.954Z,1.00
2022-09-16T12:55:04.087Z,1.45
2022-09-16T12:57:47.814Z,1.35
2022-09-16T13:00:29.307Z,1.25
2022-09-16T13:03:04.930Z,1.80
2022-09-16T13:05:36.217Z,1.30
2022-09-16T13:08:21.064Z,1.47
2022-09-16T13:11:38.955Z,1.40
2022-09-16T13:13:57.199Z,1.07
2022-09-16T13:16:35.484Z,1.00
2022-09-16T13:19:48.112Z,1.63
2022-09-16T13:22:55.470Z,1.57
2022-09-16T13:25:42.998Z,1.10
2022-09-16T13:28:45.815Z,1.23
2022-09-16T13:31:13.068Z,1.20
2022-09-16T13:33:44.871Z,1.13
2022-09-16T13:36:32.946Z,1.20
2022-09-16T13:39:07.102Z,1.50
2022-09-16T13:41:39.958Z,1.53
2022-09-16T13:44:38.561Z,1.70
2022-09-16T13:47:11.625Z,1.37
2022-09-16T13:49:41.570Z,0.77
2022-09-16T13:52:42.711Z,1.00
2022-09-16T13:55:25.184Z,0.90
2022-09-16T13:58:28.538Z,0.80
2022-09-16T14:01:48.913Z,1.10
2022-09-16T14:04:53.887Z,1.00
2022-09-16T14:07:51.555Z,1.20
2022-09-16T14:10:43.109Z,1.00
2022-09-16T14:13:21.867Z,1.13
2022-09-16T14:15:56.352Z,1.10
2022-09-16T14:18:33.233Z,1.30
2022-09-16T14:21:23.791Z,1.10
2022-09-16T14:23:50.979Z,1.07
2022-09-16T14:26:21.930Z,0.87
2022-09-16T14:28:49.234Z,1.10
2022-09-16T14:31:19.808Z,1.17
2022-09-16T14:33:56.554Z,1.00
2022-09-16T14:36:30.308Z,1.10
2022-09-16T14:39:01.142Z,1.57
2022-09-16T14:41:36.494Z,1.17
2022-09-16T14:44:18.749Z,1.50
2022-09-16T14:46:49.652Z,1.23
2022-09-16T14:49:18.489Z,1.10
2022-09-16T14:51:58.625Z,1.60
2022-09-16T14:54:27.561Z,1.60
2022-09-16T14:57:00.191Z,1.07
2022-09-16T14:59:38.559Z,0.97
2022-09-16T15:02:51.521Z,0.90
2022-09-16T15:05:40.117Z,0.80
2022-09-16T15:08:46.848Z,1.23
2022-09-16T15:11:43.692Z,0.80
2022-09-16T15:14:07.723Z,0.50
2022-09-16T15:16:53.356Z,0.70
2022-09-16T15:19:24.867Z,0.70
2022-09-16T15:21:52.469Z,0.60
2022-09-16T15:24:31.071Z,0.77
2022-09-16T15:26:59.201Z,1.00
2022-09-16T15:29:30.805Z,0.60
2022-09-16T15:32:18.349Z,1.20
2022-09-16T15:34:46.394Z,0.80
2022-09-16T15:37:34.685Z,1.30
2022-09-16T15:40:26.480Z,1.40
2022-09-16T15:43:12.260Z,1.00
2022-09-16T15:45:40.205Z,1.60
2022-09-16T15:48:18.653Z,1.50
2022-09-16T15:51:01.960Z,1.20
2022-09-16T15:53:32.080Z,1.40
2022-09-16T15:56:27.595Z,0.90
2022-09-16T15:59:06.984Z,1.63
2022-09-16T16:01:52.985Z,1.00
2022-09-16T16:04:46.940Z,1.00
2022-09-16T16:07:43.916Z,1.30
2022-09-16T16:10:42.057Z,0.77
2022-09-16T16:13:09.024Z,0.90
2022-09-16T16:15:39.084Z,1.00
2022-09-16T16:18:08.736Z,0.97
2022-09-16T16:20:37.504Z,0.97
2022-09-16T16:23:04.730Z,0.80
2022-09-16T16:25:32.333Z,1.00
2022-09-16T16:27:59.349Z,0.83
2022-09-16T16:30:26.379Z,0.90
2022-09-16T16:32:53.371Z,0.80
2022-09-16T16:35:20.355Z,0.80
2022-09-16T16:37:47.820Z,0.80
2022-09-16T16:40:16.015Z,0.80
2022-09-16T16:42:44.340Z,0.93
2022-09-16T16:45:14.951Z,1.17
2022-09-16T16:47:43.232Z,0.97
2022-09-16T16:50:11.189Z,0.80
2022-09-16T16:52:38.710Z,1.10
2022-09-16T16:55:07.088Z,1.03
2022-09-16T16:57:34.100Z,0.60
2022-09-16T17:00:01.204Z,0.80
2022-09-16T17:02:28.310Z,0.90
2022-09-16T17:04:55.821Z,0.70
2022-09-16T17:07:27.387Z,1.10
2022-09-16T17:09:57.377Z,1.13
2022-09-16T17:12:24.784Z,0.80
2022-09-16T17:14:51.844Z,0.90
2022-09-16T17:17:18.812Z,0.93
2022-09-16T17:19:45.955Z,1.03
2022-09-16T17:22:13.065Z,1.13
2022-09-16T17:24:40.118Z,0.87
2022-09-16T17:27:07.122Z,1.10
2022-09-16T17:29:34.609Z,1.30
2022-09-16T17:32:03.266Z,1.10
2022-09-16T17:34:31.279Z,0.90
2022-09-16T17:36:58.689Z,1.50
2022-09-16T17:39:26.158Z,1.10
2022-09-16T17:41:56.743Z,1.30
2022-09-16T17:44:24.707Z,1.00
2022-09-16T17:46:52.253Z,1.13
2022-09-16T17:49:22.556Z,1.23
2022-09-16T17:51:51.067Z,1.17
2022-09-16T17:54:18.270Z,0.90
2022-09-16T17:56:45.832Z,1.23
2022-09-16T17:59:17.592Z,1.00
2022-09-16T18:01:44.776Z,1.10
2022-09-16T18:04:11.952Z,1.50
2022-09-16T18:06:46.988Z,0.90
2022-09-16T18:09:16.585Z,1.10
2022-09-16T18:11:44.192Z,1.50
2022-09-16T18:14:13.566Z,1.20
2022-09-16T18:16:42.030Z,1.60
2022-09-16T18:19:09.527Z,1.30
2022-09-16T18:21:38.152Z,1.20
2022-09-16T18:24:11.071Z,1.40
2022-09-16T18:26:38.786Z,1.43
2022-09-16T18:29:10.123Z,1.57
2022-09-16T18:31:48.053Z,1.87
2022-09-16T18:34:16.802Z,1.80
2022-09-16T18:36:44.390Z,1.50
2022-09-16T18:39:14.802Z,2.30
2022-09-16T18:41:44.892Z,2.47
2022-09-16T18:44:20.947Z,1.70
2022-09-16T18:46:48.273Z,1.90
2022-09-16T18:49:17.555Z,1.73
2022-09-16T18:51:52.193Z,2.20
2022-09-16T18:54:29.920Z,1.40
2022-09-16T18:56:59.912Z,1.70
2022-09-16T18:59:31.027Z,1.93
2022-09-16T19:02:01.213Z,1.60
2022-09-16T19:04:32.519Z,1.70
2022-09-16T19:07:08.484Z,1.53
2022-09-16T19:09:38.498Z,1.83
2022-09-16T19:12:08.525Z,2.57
2022-09-16T19:14:35.711Z,2.10
2022-09-16T19:17:03.345Z,1.50
2022-09-16T19:19:30.489Z,1.50
2022-09-16T19:21:57.514Z,1.40
2022-09-16T19:24:27.125Z,2.07
2022-09-16T19:26:55.603Z,1.37
2022-09-16T19:29:23.020Z,1.33
2022-09-16T19:31:52.648Z,1.40
2022-09-16T19:34:20.809Z,1.50
2022-09-16T19:36:47.970Z,1.63
2022-09-16T19:39:15.235Z,1.40
2022-09-16T19:41:43.233Z,1.57
2022-09-16T19:44:16.760Z,1.70
2022-09-16T19:46:46.934Z,1.30
2022-09-16T19:49:20.082Z,1.20
2022-09-16T19:51:48.545Z,1.40
2022-09-16T19:54:16.560Z,1.50
2022-09-16T19:56:48.163Z,1.50
2022-09-16T19:59:17.502Z,1.40
2022-09-16T20:01:44.594Z,1.63
2022-09-16T20:04:11.710Z,1.50
2022-09-16T20:06:42.632Z,1.27
2022-09-16T20:09:12.770Z,1.93
2022-09-16T20:11:44.767Z,1.10
2022-09-16T20:14:16.525Z,1.30
2022-09-16T20:16:44.226Z,1.10
2022-09-16T20:19:14.811Z,1.65
2022-09-16T20:21:42.793Z,1.17
2022-09-16T20:24:18.132Z,0.97
2022-09-16T20:26:46.053Z,1.43
2022-09-16T20:29:13.354Z,1.67
2022-09-16T20:31:40.402Z,1.40
2022-09-16T20:34:07.655Z,1.00
2022-09-16T20:36:38.663Z,1.00
2022-09-16T20:39:07.719Z,1.03
2022-09-16T20:41:37.529Z,1.23
2022-09-16T20:44:05.865Z,1.30
2022-09-16T20:46:36.680Z,1.50
2022-09-16T20:49:08.233Z,1.07
2022-09-16T20:51:35.531Z,1.33
2022-09-16T20:54:10.351Z,1.50
2022-09-16T20:56:45.749Z,1.50
2022-09-16T20:59:16.432Z,2.20
2022-09-16T21:01:44.140Z,1.60
2022-09-16T21:04:18.376Z,1.20
2022-09-16T21:06:45.752Z,1.23
2022-09-16T21:09:15.437Z,1.10
2022-09-16T21:11:45.117Z,1.27
2022-09-16T21:14:16.310Z,1.30
2022-09-16T21:16:45.734Z,1.77
2022-09-16T21:19:13.565Z,1.20
2022-09-16T21:21:44.436Z,1.10
2022-09-16T21:24:13.261Z,1.80
2022-09-16T21:26:41.381Z,1.80
2022-09-16T21:29:21.288Z,1.00
2022-09-16T21:31:49.099Z,1.17
2022-09-16T21:34:19.958Z,1.57
2022-09-16T21:36:48.290Z,1.40
2022-09-16T21:39:16.381Z,1.77
2022-09-16T21:41:45.749Z,1.90
2022-09-16T21:44:13.947Z,1.83
2022-09-16T21:46:45.284Z,2.10
2022-09-16T21:49:25.821Z,2.40
2022-09-16T21:51:57.988Z,2.30
2022-09-16T21:54:26.637Z,2.07
2022-09-16T21:56:53.691Z,1.77
2022-09-16T21:59:21.410Z,1.67
2022-09-16T22:01:51.095Z,2.37
2022-09-16T22:04:21.819Z,1.10
2022-09-16T22:06:50.870Z,1.20
2022-09-16T22:09:18.066Z,1.70
2022-09-16T22:11:45.208Z,1.10
2022-09-16T22:14:12.462Z,1.10
2022-09-16T22:16:40.520Z,1.50
2022-09-16T22:19:12.449Z,1.07
2022-09-16T22:21:43.706Z,0.90
2022-09-16T22:24:11.688Z,0.90
2022-09-16T22:26:39.766Z,0.90
2022-09-16T22:29:09.056Z,0.70
2022-09-16T22:31:39.272Z,1.00
2022-09-16T22:34:06.327Z,1.00
2022-09-16T22:36:35.167Z,0.90
2022-09-16T22:39:07.323Z,1.00
2022-09-16T22:41:34.976Z,1.00
2022-09-16T22:44:02.536Z,1.10
2022-09-16T22:46:34.049Z,1.50
2022-09-16T22:49:01.783Z,1.00
2022-09-16T22:51:29.481Z,1.10
2022-09-16T22:53:56.765Z,1.23
2022-09-16T22:56:29.478Z,0.80
2022-09-16T22:58:58.602Z,1.00
2022-09-16T23:01:32.434Z,1.23
2022-09-16T23:04:02.153Z,0.93
2022-09-16T23:06:32.044Z,0.70
2022-09-16T23:09:00.980Z,1.10
2022-09-16T23:11:31.300Z,1.40
2022-09-16T23:13:59.380Z,1.10
2022-09-16T23:16:30.304Z,1.10
2022-09-16T23:19:00.628Z,1.30
2022-09-16T23:21:28.343Z,1.17
2022-09-16T23:24:00.435Z,1.10
2022-09-16T23:26:31.727Z,1.23
2022-09-16T23:29:01.205Z,1.00
2022-09-16T23:31:33.075Z,1.17
2022-09-16T23:34:00.982Z,1.17
2022-09-16T23:36:28.902Z,1.57
2022-09-16T23:38:56.441Z,1.77
2022-09-16T23:41:27.660Z,1.40
2022-09-16T23:43:56.367Z,1.30
2022-09-16T23:46:26.935Z,1.30
2022-09-16T23:48:54.182Z,1.13
2022-09-16T23:51:27.344Z,1.13
2022-09-16T23:53:56.707Z,1.10
2022-09-16T23:56:23.977Z,1.43
2022-09-16T23:58:51.942Z,1.10
